createdAt,value
2018-07-06T00:02:35.108Z,101334.86
2018-07-06T00:05:40.681Z,101329.72
2018-07-06T00:08:46.358Z,101332.13
2018-07-06T00:11:52.112Z,101333.83
2018-07-06T00:14:57.649Z,101337.77
2018-07-06T00:18:03.148Z,101330.92
2018-07-06T00:21:08.934Z,101331.23
2018-07-06T00:24:14.245Z,101330.04
2018-07-06T00:27:19.763Z,101324.17
2018-07-06T00:30:25.392Z,101342.48
2018-07-06T00:33:30.630Z,101343.00
2018-07-06T00:36:36.246Z,101339.91
2018-07-06T00:39:41.939Z,101343.50
2018-07-06T00:42:47.651Z,101343.80
2018-07-06T00:45:52.922Z,101347.20
2018-07-06T00:48:58.494Z,101349.30
2018-07-06T00:52:03.943Z,101349.59
2018-07-06T00:55:10.973Z,101351.64
2018-07-06T00:58:16.460Z,101346.74
2018-07-06T01:01:21.659Z,101346.45
2018-07-06T01:04:27.044Z,101341.53
2018-07-06T01:07:32.490Z,101352.92
2018-07-06T01:10:38.164Z,101343.70
2018-07-06T01:13:43.940Z,101349.89
2018-07-06T01:16:49.359Z,101345.48
2018-07-06T01:19:54.663Z,101346.90
2018-07-06T01:23:03.499Z,101349.13
2018-07-06T01:26:08.789Z,101346.91
2018-07-06T01:29:13.820Z,101352.39
2018-07-06T01:32:19.083Z,101346.90
2018-07-06T01:35:24.783Z,101350.84
2018-07-06T01:38:30.266Z,101355.30
2018-07-06T01:41:35.747Z,101355.64
2018-07-06T01:44:41.431Z,101345.87
2018-07-06T01:47:47.229Z,101356.84
2018-07-06T01:50:52.837Z,101361.13
2018-07-06T01:53:58.197Z,101359.24
2018-07-06T01:57:03.967Z,101358.22
2018-07-06T02:00:09.186Z,101356.33
2018-07-06T02:03:14.509Z,101352.37
2018-07-06T02:06:20.106Z,101356.13
2018-07-06T02:09:25.532Z,101348.86
2018-07-06T02:12:30.930Z,101351.13
2018-07-06T02:15:36.170Z,101358.63
2018-07-06T02:18:41.712Z,101361.72
2018-07-06T02:21:47.005Z,101360.35
2018-07-06T02:24:52.463Z,101360.35
2018-07-06T02:27:58.064Z,101364.59
2018-07-06T02:31:03.500Z,101368.71
2018-07-06T02:34:08.928Z,101377.81
2018-07-06T02:37:14.540Z,101381.07
2018-07-06T02:40:20.061Z,101377.11
2018-07-06T02:43:25.467Z,101375.41
2018-07-06T02:46:30.799Z,101377.30
2018-07-06T02:49:36.347Z,101383.13
2018-07-06T02:52:41.552Z,101386.39
2018-07-06T02:55:47.033Z,101370.98
2018-07-06T02:58:52.647Z,101377.97
2018-07-06T03:01:58.094Z,101381.40
2018-07-06T03:05:03.887Z,101385.69
2018-07-06T03:08:09.518Z,101389.98
2018-07-06T03:11:14.910Z,101386.20
2018-07-06T03:14:20.303Z,101385.69
2018-07-06T03:17:25.848Z,101393.08
2018-07-06T03:20:31.244Z,101400.64
2018-07-06T03:23:36.414Z,101393.98
2018-07-06T03:26:41.605Z,101398.23
2018-07-06T03:29:47.188Z,101400.17
2018-07-06T03:32:55.805Z,101399.96
2018-07-06T03:36:01.578Z,101398.45
2018-07-06T03:39:07.129Z,101401.67
2018-07-06T03:42:12.718Z,101402.53
2018-07-06T03:45:18.005Z,101414.03
2018-07-06T03:48:28.034Z,101411.91
2018-07-06T03:51:33.504Z,101409.41
2018-07-06T03:54:38.766Z,101418.94
2018-07-06T03:57:43.968Z,101417.06
2018-07-06T04:00:49.180Z,101419.41
2018-07-06T04:03:54.499Z,101416.55
2018-07-06T04:06:59.895Z,101415.09
2018-07-06T04:10:05.577Z,101414.66
2018-07-06T04:13:11.346Z,101413.86
2018-07-06T04:16:16.365Z,101422.13
2018-07-06T04:19:21.715Z,101420.77
2018-07-06T04:22:27.172Z,101424.98
2018-07-06T04:25:32.345Z,101429.33
2018-07-06T04:28:37.594Z,101426.95
2018-07-06T04:31:42.805Z,101422.66
2018-07-06T04:34:48.254Z,101425.92
2018-07-06T04:37:54.113Z,101422.91
2018-07-06T04:40:59.454Z,101431.50
2018-07-06T04:44:04.915Z,101434.08
2018-07-06T04:47:10.203Z,101436.74
2018-07-06T04:50:15.658Z,101442.92
2018-07-06T04:53:21.006Z,101449.06
2018-07-06T04:56:26.462Z,101438.59
2018-07-06T04:59:32.142Z,101445.23
2018-07-06T05:02:37.570Z,101450.16
2018-07-06T05:05:42.825Z,101447.89
2018-07-06T05:08:48.529Z,101447.32
2018-07-06T05:11:53.821Z,101443.37
2018-07-06T05:14:59.109Z,101454.13
2018-07-06T05:18:04.386Z,101447.57
2018-07-06T05:21:09.660Z,101447.34
2018-07-06T05:24:15.249Z,101448.84
2018-07-06T05:27:20.738Z,101450.14
2018-07-06T05:30:26.415Z,101455.93
2018-07-06T05:33:32.016Z,101454.81
2018-07-06T05:36:37.221Z,101460.80
2018-07-06T05:39:42.637Z,101463.71
2018-07-06T05:42:48.053Z,101476.07
2018-07-06T05:45:53.493Z,101476.05
2018-07-06T05:48:58.894Z,101481.19
2018-07-06T05:52:04.213Z,101482.56
2018-07-06T05:55:09.547Z,101489.88
2018-07-06T05:58:15.268Z,101489.69
2018-07-06T06:01:20.668Z,101494.95
2018-07-06T06:04:25.820Z,101501.56
2018-07-06T06:07:23.581Z,101500.00
2018-07-06T06:09:52.660Z,101494.06
2018-07-06T06:12:21.768Z,101504.96
2018-07-06T06:14:51.761Z,101513.59
2018-07-06T06:17:20.575Z,101515.15
2018-07-06T06:19:49.558Z,101518.39
2018-07-06T06:22:18.614Z,101510.92
2018-07-06T06:24:47.581Z,101514.74
2018-07-06T06:27:16.663Z,101517.63
2018-07-06T06:29:46.614Z,101514.05
2018-07-06T06:32:16.176Z,101524.78
2018-07-06T06:34:45.184Z,101526.08
2018-07-06T06:37:14.468Z,101521.33
2018-07-06T06:39:43.463Z,101522.83
2018-07-06T06:42:14.574Z,101527.09
2018-07-06T06:44:41.528Z,101528.35
2018-07-06T06:47:10.518Z,101525.72
2018-07-06T06:49:39.523Z,101530.16
2018-07-06T06:52:08.478Z,101525.02
2018-07-06T06:54:37.616Z,101527.86
2018-07-06T06:57:06.767Z,101533.19
2018-07-06T06:59:39.356Z,101525.92
2018-07-06T07:02:08.356Z,101532.47
2018-07-06T07:04:37.392Z,101530.39
2018-07-06T07:07:06.416Z,101532.06
2018-07-06T07:09:35.439Z,101542.44
2018-07-06T07:12:06.786Z,101543.50
2018-07-06T07:14:35.833Z,101543.49
2018-07-06T07:17:05.863Z,101546.78
2018-07-06T07:19:35.173Z,101547.06
2018-07-06T07:22:07.116Z,101551.20
2018-07-06T07:24:36.301Z,101541.41
2018-07-06T07:27:05.554Z,101545.61
2018-07-06T07:29:37.774Z,101539.49
2018-07-06T07:32:11.182Z,101538.91
2018-07-06T07:34:41.474Z,101542.14
2018-07-06T07:37:11.830Z,101544.07
2018-07-06T07:39:42.633Z,101528.37
2018-07-06T07:42:18.717Z,101533.41
2018-07-06T07:44:48.722Z,101541.27
2018-07-06T07:47:19.152Z,101537.23
2018-07-06T07:49:49.281Z,101537.58
2018-07-06T07:52:55.104Z,101542.97
2018-07-06T07:55:25.052Z,101540.89
2018-07-06T07:57:55.064Z,101534.93
2018-07-06T08:00:25.147Z,101536.65
2018-07-06T08:02:55.290Z,101533.62
2018-07-06T08:05:26.049Z,101542.24
2018-07-06T08:07:56.778Z,101544.30
2018-07-06T08:10:26.792Z,101535.98
2018-07-06T08:12:59.579Z,101546.28
2018-07-06T08:15:29.878Z,101544.06
2018-07-06T08:18:05.824Z,101549.52
2018-07-06T08:20:35.915Z,101547.00
2018-07-06T08:23:09.611Z,101543.30
2018-07-06T08:25:39.810Z,101547.80
2018-07-06T08:28:10.298Z,101543.64
2018-07-06T08:30:44.949Z,101552.17
2018-07-06T08:33:13.772Z,101549.05
2018-07-06T08:36:38.697Z,101553.23
2018-07-06T08:39:12.257Z,101548.00
2018-07-06T08:41:39.660Z,101554.03
2018-07-06T08:44:08.572Z,101551.89
2018-07-06T08:46:40.282Z,101549.89
2018-07-06T08:49:09.259Z,101551.05
2018-07-06T08:51:38.201Z,101560.00
2018-07-06T08:54:08.716Z,101552.73
2018-07-06T08:56:40.450Z,101554.50
2018-07-06T08:59:11.382Z,101553.72
2018-07-06T09:01:44.453Z,101555.09
2018-07-06T09:04:44.636Z,101552.05
2018-07-06T09:07:15.834Z,101556.33
2018-07-06T09:09:42.665Z,101545.32
2018-07-06T09:12:18.973Z,101555.28
2018-07-06T09:14:48.343Z,101557.31
2018-07-06T09:17:18.422Z,101564.46
2018-07-06T09:19:51.019Z,101561.99
2018-07-06T09:22:20.640Z,101557.38
2018-07-06T09:24:53.784Z,101556.56
2018-07-06T09:27:22.805Z,101561.90
2018-07-06T09:29:51.962Z,101565.66
2018-07-06T09:32:23.496Z,101566.80
2018-07-06T09:34:52.370Z,101568.99
2018-07-06T09:37:21.507Z,101570.56
2018-07-06T09:39:55.723Z,101574.99
2018-07-06T09:42:22.669Z,101569.88
2018-07-06T09:44:51.684Z,101570.66
2018-07-06T09:47:20.788Z,101574.78
2018-07-06T09:49:49.721Z,101570.97
2018-07-06T09:52:18.926Z,101570.19
2018-07-06T09:54:47.910Z,101566.30
2018-07-06T09:57:23.261Z,101573.11
2018-07-06T09:59:58.200Z,101574.11
2018-07-06T10:02:27.186Z,101566.30
2018-07-06T10:05:00.937Z,101573.48
2018-07-06T10:07:27.497Z,101562.91
2018-07-06T10:09:56.558Z,101573.09
2018-07-06T10:12:25.644Z,101566.41
2018-07-06T10:14:54.649Z,101571.10
2018-07-06T10:17:23.961Z,101561.65
2018-07-06T10:19:53.139Z,101565.62
2018-07-06T10:22:29.155Z,101564.91
2018-07-06T10:24:58.069Z,101558.11
2018-07-06T10:28:53.908Z,101562.38
2018-07-06T10:32:53.492Z,101570.61
2018-07-06T10:35:22.732Z,101569.95
2018-07-06T10:37:54.395Z,101571.51
2018-07-06T10:40:23.485Z,101572.45
2018-07-06T10:42:52.459Z,101565.94
2018-07-06T10:45:23.611Z,101576.48
2018-07-06T10:47:52.756Z,101578.50
2018-07-06T10:50:21.865Z,101571.20
2018-07-06T10:53:11.952Z,101579.33
2018-07-06T10:55:38.038Z,101578.23
2018-07-06T10:58:08.666Z,101586.37
2018-07-06T11:00:36.340Z,101592.47
2018-07-06T11:03:05.420Z,101587.79
2018-07-06T11:05:34.446Z,101587.62
2018-07-06T11:08:03.479Z,101598.55
2018-07-06T11:10:32.461Z,101597.53
2018-07-06T11:13:04.450Z,101600.95
2018-07-06T11:15:35.723Z,101590.25
2018-07-06T11:18:04.834Z,101605.50
2018-07-06T11:20:34.351Z,101593.31
2018-07-06T11:23:06.093Z,101585.41
2018-07-06T11:25:35.102Z,101585.71
2018-07-06T11:28:05.824Z,101586.39
2018-07-06T11:30:34.825Z,101584.97
2018-07-06T11:33:05.574Z,101586.61
2018-07-06T11:35:34.566Z,101591.33
2018-07-06T11:38:06.399Z,101586.95
2018-07-06T11:40:35.462Z,101591.70
2018-07-06T11:43:04.684Z,101590.13
2018-07-06T11:45:33.695Z,101596.24
2018-07-06T11:48:02.719Z,101589.80
2018-07-06T11:50:31.870Z,101591.70
2018-07-06T11:53:00.912Z,101587.52
2018-07-06T11:55:30.383Z,101583.59
2018-07-06T11:57:59.491Z,101587.52
2018-07-06T12:00:28.941Z,101579.06
2018-07-06T12:02:58.059Z,101589.23
2018-07-06T12:05:27.117Z,101583.58
2018-07-06T12:07:56.133Z,101583.53
2018-07-06T12:10:25.186Z,101587.47
2018-07-06T12:12:56.899Z,101587.11
2018-07-06T12:15:27.767Z,101589.40
2018-07-06T12:17:57.183Z,101588.28
2018-07-06T12:20:28.201Z,101599.76
2018-07-06T12:22:55.506Z,101590.27
2018-07-06T12:25:26.760Z,101592.20
2018-07-06T12:27:55.752Z,101592.44
2018-07-06T12:30:27.387Z,101602.95
2018-07-06T12:32:56.617Z,101599.81
2018-07-06T12:35:28.291Z,101586.47
2018-07-06T12:37:57.876Z,101593.98
2018-07-06T12:40:26.784Z,101584.14
2018-07-06T12:42:56.001Z,101577.09
2018-07-06T12:45:25.126Z,101577.29
2018-07-06T12:47:54.042Z,101588.41
2018-07-06T12:50:23.173Z,101588.23
2018-07-06T12:52:56.991Z,101575.79
2018-07-06T12:55:26.059Z,101581.66
2018-07-06T12:57:55.184Z,101576.24
2018-07-06T13:00:24.353Z,101583.27
2018-07-06T13:02:53.454Z,101571.31
2018-07-06T13:05:22.368Z,101580.25
2018-07-06T13:07:51.512Z,101582.23
2018-07-06T13:10:20.693Z,101582.97
2018-07-06T13:12:49.656Z,101586.36
2018-07-06T13:15:18.934Z,101597.09
2018-07-06T13:17:48.025Z,101597.02
2018-07-06T13:20:16.993Z,101591.62
2018-07-06T13:22:46.402Z,101592.52
2018-07-06T13:25:18.743Z,101588.73
2018-07-06T13:27:47.963Z,101594.12
2018-07-06T13:30:21.798Z,101594.58
2018-07-06T13:32:51.589Z,101588.38
2018-07-06T13:35:20.391Z,101596.48
2018-07-06T13:37:50.341Z,101593.59
2018-07-06T13:40:22.906Z,101591.30
2018-07-06T13:42:52.041Z,101584.03
2018-07-06T13:45:21.184Z,101585.19
2018-07-06T13:47:50.358Z,101584.28
2018-07-06T13:50:24.808Z,101594.58
2018-07-06T13:52:54.924Z,101587.14
2018-07-06T13:55:26.517Z,101588.88
2018-07-06T13:58:02.319Z,101600.33
2018-07-06T14:00:29.482Z,101599.69
2018-07-06T14:02:58.470Z,101603.63
2018-07-06T14:05:27.467Z,101608.43
2018-07-06T14:07:56.473Z,101612.20
2018-07-06T14:10:25.526Z,101609.70
2018-07-06T14:12:56.846Z,101606.73
2018-07-06T14:15:28.127Z,101610.14
2018-07-06T14:17:59.602Z,101611.41
2018-07-06T14:20:28.823Z,101602.73
2018-07-06T14:23:00.861Z,101603.63
2018-07-06T14:25:29.869Z,101604.09
2018-07-06T14:27:59.147Z,101602.54
2018-07-06T14:30:28.114Z,101607.14
2018-07-06T14:32:57.104Z,101615.04
2018-07-06T14:35:26.436Z,101613.58
2018-07-06T14:37:55.365Z,101614.48
2018-07-06T14:40:24.309Z,101605.38
2018-07-06T14:42:53.352Z,101614.72
2018-07-06T14:45:23.678Z,101616.30
2018-07-06T14:48:01.449Z,101617.20
2018-07-06T14:50:30.386Z,101619.88
2018-07-06T14:52:59.416Z,101622.88
2018-07-06T14:55:31.301Z,101624.41
2018-07-06T14:58:02.857Z,101613.16
2018-07-06T15:00:31.786Z,101625.56
2018-07-06T15:03:00.846Z,101627.65
2018-07-06T15:05:30.043Z,101624.44
2018-07-06T15:07:58.934Z,101625.76
2018-07-06T15:10:28.018Z,101629.41
2018-07-06T15:13:30.447Z,101628.74
2018-07-06T15:16:39.438Z,101626.66
2018-07-06T15:30:07.658Z,101635.05
2018-07-06T15:33:27.050Z,101627.82
2018-07-06T15:37:12.110Z,101634.63
2018-07-06T15:39:45.118Z,101632.17
2018-07-06T15:42:26.026Z,101631.41
2018-07-06T15:45:55.102Z,101634.98
2018-07-06T15:49:25.174Z,101632.66
2018-07-06T16:03:15.380Z,101633.34
2018-07-06T16:06:43.818Z,101644.98
2018-07-06T16:09:17.557Z,101640.77
2018-07-06T16:11:54.049Z,101643.49
2018-07-06T16:14:50.669Z,101642.72
2018-07-06T16:17:55.212Z,101640.48
2018-07-06T16:20:49.044Z,101639.13
2018-07-06T16:26:51.573Z,101635.84
2018-07-06T16:30:25.093Z,101637.53
2018-07-06T16:33:30.136Z,101637.40
2018-07-06T16:36:17.808Z,101636.20
2018-07-06T16:45:28.590Z,101627.83
2018-07-06T17:02:27.967Z,101632.23
2018-07-06T17:08:49.293Z,101636.94
2018-07-06T17:14:49.922Z,101636.36
2018-07-06T17:18:20.849Z,101631.24
2018-07-06T17:21:48.901Z,101624.19
2018-07-06T17:24:37.517Z,101626.94
2018-07-06T17:31:15.898Z,101630.66
2018-07-06T17:34:29.348Z,101624.22
2018-07-06T17:40:10.358Z,101629.64
2018-07-06T17:43:17.586Z,101626.80
2018-07-06T17:46:15.968Z,101631.50
2018-07-06T17:48:59.473Z,101629.98
2018-07-06T17:51:54.121Z,101631.30
2018-07-06T17:54:23.716Z,101626.50
2018-07-06T17:57:21.447Z,101634.19
2018-07-06T18:00:34.201Z,101635.27
2018-07-06T18:03:20.397Z,101637.80
2018-07-06T18:17:05.523Z,101641.08
2018-07-06T18:30:27.238Z,101638.67
2018-07-06T18:41:01.742Z,101639.69
2018-07-06T18:44:15.010Z,101640.73
2018-07-06T18:51:18.141Z,101645.03
2018-07-06T18:54:28.797Z,101648.39
2018-07-06T19:03:21.875Z,101653.63
2018-07-06T19:07:48.684Z,101650.33
2018-07-06T19:09:15.082Z,101649.52
2018-07-06T19:12:16.476Z,101645.47
2018-07-06T19:18:33.698Z,101655.11
2018-07-06T19:21:40.965Z,101660.98
2018-07-06T19:25:52.729Z,101657.07
2018-07-06T19:28:59.198Z,101659.74
2018-07-06T19:31:36.396Z,101667.99
2018-07-06T19:34:29.289Z,101670.45
2018-07-06T19:37:01.811Z,101674.61
2018-07-06T19:39:30.653Z,101672.06
2018-07-06T19:41:59.843Z,101678.47
2018-07-06T19:44:29.801Z,101676.88
2018-07-06T19:46:58.969Z,101676.02
2018-07-06T19:49:31.082Z,101685.00
2018-07-06T19:52:00.235Z,101686.70
2018-07-06T19:54:29.099Z,101696.09
2018-07-06T19:56:58.205Z,101692.14
2018-07-06T19:59:27.194Z,101701.86
2018-07-06T20:01:56.360Z,101701.22
2018-07-06T20:04:25.258Z,101703.66
2018-07-06T20:06:54.423Z,101706.29
2018-07-06T20:09:23.306Z,101710.65
2018-07-06T20:11:52.239Z,101715.51
2018-07-06T20:14:21.287Z,101720.70
2018-07-06T20:16:50.400Z,101724.69
2018-07-06T20:19:19.526Z,101723.16
2018-07-06T20:22:08.031Z,101723.52
2018-07-06T20:24:38.740Z,101735.09
2018-07-06T20:27:12.953Z,101741.20
2018-07-06T20:29:43.438Z,101730.19
2018-07-06T20:32:26.185Z,101747.28
2018-07-06T20:34:56.169Z,101746.59
2018-07-06T20:37:26.905Z,101749.09
2018-07-06T20:39:58.786Z,101753.02
2018-07-06T20:42:35.100Z,101753.50
2018-07-06T20:45:04.134Z,101754.22
2018-07-06T20:47:35.768Z,101764.09
2018-07-06T20:50:04.862Z,101766.48
2018-07-06T20:52:36.377Z,101773.31
2018-07-06T20:55:05.677Z,101776.69
2018-07-06T20:57:37.127Z,101777.94
2018-07-06T21:00:06.371Z,101778.78
2018-07-06T21:02:39.368Z,101788.97
2018-07-06T21:05:08.388Z,101777.19
2018-07-06T21:07:35.565Z,101789.05
2018-07-06T21:10:04.995Z,101782.20
2018-07-06T21:12:33.927Z,101780.86
2018-07-06T21:15:03.015Z,101788.25
2018-07-06T21:17:32.247Z,101787.17
2018-07-06T21:20:04.172Z,101795.90
2018-07-06T21:22:33.467Z,101791.01
2018-07-06T21:25:02.552Z,101796.41
2018-07-06T21:27:31.714Z,101792.52
2018-07-06T21:30:00.972Z,101791.02
2018-07-06T21:32:30.285Z,101794.58
2018-07-06T21:34:59.553Z,101787.20
2018-07-06T21:37:28.761Z,101786.31
2018-07-06T21:40:00.139Z,101791.42
2018-07-06T21:42:37.191Z,101795.50
2018-07-06T21:45:06.437Z,101796.02
2018-07-06T21:47:37.187Z,101799.00
2018-07-06T21:50:06.337Z,101799.32
2018-07-06T21:52:38.230Z,101803.88
2018-07-06T21:55:07.439Z,101800.86
2018-07-06T21:57:36.663Z,101798.86
2018-07-06T22:00:11.854Z,101800.62
2018-07-06T22:02:41.132Z,101805.00
2018-07-06T22:05:12.949Z,101802.13
2018-07-06T22:07:44.405Z,101801.13
2018-07-06T22:10:13.435Z,101800.52
2018-07-06T22:12:42.655Z,101799.05
2018-07-06T22:15:14.348Z,101803.58
2018-07-06T22:17:43.256Z,101807.20
2018-07-06T22:20:15.037Z,101821.88
2018-07-06T22:22:46.375Z,101815.86
2018-07-06T22:25:18.516Z,101819.52
2018-07-06T22:27:50.683Z,101819.00
2018-07-06T22:30:19.661Z,101818.02
2018-07-06T22:32:48.689Z,101814.10
2018-07-06T22:35:17.828Z,101819.95
2018-07-06T22:37:47.374Z,101813.93
2018-07-06T22:40:17.015Z,101814.28
2018-07-06T22:42:46.178Z,101814.28
2018-07-06T22:45:15.336Z,101810.70
2018-07-06T22:47:48.956Z,101817.55
2018-07-06T22:50:20.158Z,101817.89
2018-07-06T22:52:49.376Z,101813.77
2018-07-06T22:55:20.679Z,101817.06
2018-07-06T22:57:49.872Z,101823.45
2018-07-06T23:00:18.948Z,101816.06
2018-07-06T23:02:47.985Z,101816.31
2018-07-06T23:05:20.821Z,101817.51
2018-07-06T23:07:49.785Z,101818.39
2018-07-06T23:10:18.944Z,101817.49
2018-07-06T23:12:48.084Z,101818.71
2018-07-06T23:15:17.172Z,101819.94
2018-07-06T23:17:48.614Z,101820.09
2018-07-06T23:20:17.669Z,101817.16
2018-07-06T23:23:14.197Z,101814.94
2018-07-06T23:25:49.956Z,101812.52
2018-07-06T23:28:19.127Z,101818.71
2018-07-06T23:30:49.849Z,101819.72
2018-07-06T23:33:18.931Z,101819.20
2018-07-06T23:35:47.875Z,101813.04
2018-07-06T23:38:16.878Z,101818.19
2018-07-06T23:40:45.780Z,101822.97
2018-07-06T23:43:14.857Z,101817.68
2018-07-06T23:45:43.818Z,101817.48
2018-07-06T23:48:12.928Z,101821.25
2018-07-06T23:50:44.652Z,101824.16
2018-07-06T23:53:13.659Z,101830.00
2018-07-06T23:55:42.614Z,101823.50
2018-07-06T23:58:11.527Z,101830.33
